Time;durP1;ratioP1;P1;durP2;ratioP2;P2;SDS_P1;SDS_P2;PMS_P1;PMS_P2;Temp;Humidity;BMP_temperature;BMP_pressure;BME280_temperature;BME280_humidity;BME280_pressure;Samples;Min_cycle;Max_cycle;Signal;HPM_P1;HPM_P2
2021/10/04 00:01:41;;;;;;;2.17;1.97;;;;;;;14.62;69.31;100548.69;5044810;28;20201;-72
2021/10/04 00:04:08;;;;;;;2.03;1.80;;;;;;;14.59;68.95;100549.78;5038199;28;20730;-72
2021/10/04 00:06:34;;;;;;;2.00;1.80;;;;;;;14.56;68.69;100544.66;5037858;28;20210;-72
2021/10/04 00:09:01;;;;;;;2.20;1.97;;;;;;;14.52;68.96;100545.88;5043249;28;20218;-72
2021/10/04 00:11:27;;;;;;;2.13;1.87;;;;;;;14.49;68.98;100560.41;5043857;28;20233;-72
2021/10/04 00:13:55;;;;;;;2.30;2.10;;;;;;;14.46;68.66;100559.81;5049973;28;20232;-72
2021/10/04 00:16:22;;;;;;;1.90;1.70;;;;;;;14.42;68.45;100559.19;5032059;28;20228;-70
2021/10/04 00:18:48;;;;;;;1.80;1.70;;;;;;;14.40;68.72;100549.53;5044676;28;20686;-72
2021/10/04 00:21:15;;;;;;;1.80;1.47;;;;;;;14.36;68.31;100543.56;5050085;28;20217;-72
2021/10/04 00:23:42;;;;;;;1.80;1.70;;;;;;;14.34;68.56;100556.22;5044494;28;20233;-72
2021/10/04 00:26:08;;;;;;;1.60;1.37;;;;;;;14.31;68.23;100561.88;5036969;28;20210;-72
2021/10/04 00:28:35;;;;;;;1.77;1.43;;;;;;;14.29;67.97;100560.28;5048573;28;20198;-72
2021/10/04 00:31:03;;;;;;;2.30;1.20;;;;;;;14.25;67.90;100563.19;5049744;28;20229;-72
2021/10/04 00:33:29;;;;;;;1.37;1.10;;;;;;;14.23;67.94;100569.66;5049561;28;20236;-72
2021/10/04 00:35:56;;;;;;;1.80;1.10;;;;;;;14.19;67.49;100569.03;5042313;28;20270;-72
2021/10/04 00:38:23;;;;;;;1.43;0.97;;;;;;;14.15;67.20;100559.53;5040392;28;20205;-71
2021/10/04 00:40:50;;;;;;;1.20;0.80;;;;;;;14.13;66.91;100561.50;5050088;28;20236;-72
2021/10/04 00:43:17;;;;;;;1.10;1.00;;;;;;;14.10;66.69;100551.03;5044476;28;20233;-72
2021/10/04 00:45:44;;;;;;;1.60;1.27;;;;;;;14.06;66.86;100565.63;5041092;28;20592;-73
2021/10/04 00:48:11;;;;;;;1.60;1.23;;;;;;;14.05;66.74;100571.09;5049218;28;20678;-72
2021/10/04 00:50:38;;;;;;;1.67;1.27;;;;;;;14.04;66.68;100562.22;5047846;28;20226;-72
2021/10/04 00:53:05;;;;;;;1.87;1.00;;;;;;;14.05;66.85;100571.09;5044491;28;20233;-72
2021/10/04 00:55:32;;;;;;;2.27;1.00;;;;;;;14.00;66.85;100575.97;5049687;28;20686;-72
2021/10/04 00:58:00;;;;;;;0.90;0.80;;;;;;;14.01;66.72;100570.50;5043236;28;20206;-72
2021/10/04 01:00:28;;;;;;;1.40;1.10;;;;;;;13.98;66.59;100581.44;5033893;28;20210;-72
2021/10/04 01:02:55;;;;;;;2.17;0.80;;;;;;;13.98;66.55;100581.44;5038671;28;20226;-72
2021/10/04 01:05:23;;;;;;;1.67;0.80;;;;;;;13.98;66.24;100585.94;5029923;28;20214;-72
2021/10/04 01:07:50;;;;;;;1.10;1.00;;;;;;;13.97;66.13;100593.16;5043644;28;20220;-72
2021/10/04 01:10:18;;;;;;;1.23;1.00;;;;;;;13.97;66.25;100603.88;5049294;28;20206;-72
2021/10/04 01:12:46;;;;;;;0.93;0.80;;;;;;;13.98;66.73;100607.34;5048082;28;20225;-72
2021/10/04 01:15:14;;;;;;;1.93;1.40;;;;;;;13.98;66.39;100618.06;5043665;28;20580;-72
2021/10/04 01:17:41;;;;;;;2.07;0.90;;;;;;;14.00;66.67;100629.53;5044949;28;20274;-72
2021/10/04 01:20:12;;;;;;;1.17;0.87;;;;;;;14.01;66.54;100629.41;5051747;28;20202;-72
2021/10/04 01:22:39;;;;;;;1.50;0.70;;;;;;;14.00;66.37;100627.69;5050608;28;20198;-72
2021/10/04 01:25:08;;;;;;;1.30;0.93;;;;;;;14.01;66.73;100633.91;5051149;28;20217;-72
2021/10/04 01:27:35;;;;;;;0.87;0.70;;;;;;;14.00;66.63;100634.88;5044928;28;20229;-72
2021/10/04 01:30:01;;;;;;;2.00;0.90;;;;;;;13.98;66.87;100639.50;5040063;28;20197;-72
2021/10/04 01:32:28;;;;;;;1.93;0.83;;;;;;;13.97;66.97;100637.81;5045772;28;20225;-72
2021/10/04 01:34:55;;;;;;;1.87;0.70;;;;;;;13.96;66.52;100645.00;5051834;28;20234;-72
2021/10/04 01:37:24;;;;;;;1.10;0.80;;;;;;;13.95;66.64;100651.31;5050458;28;20236;-72
2021/10/04 01:39:51;;;;;;;0.80;0.70;;;;;;;13.94;66.88;100644.25;5036419;28;20224;-73
2021/10/04 01:42:18;;;;;;;0.93;0.60;;;;;;;13.92;66.50;100651.56;5048867;28;20201;-72
2021/10/04 01:44:44;;;;;;;2.77;0.60;;;;;;;13.91;67.04;100641.81;5044599;28;20597;-72
2021/10/04 01:47:11;;;;;;;0.70;0.60;;;;;;;13.89;66.27;100646.44;5051666;28;20205;-72
2021/10/04 01:49:37;;;;;;;1.33;0.70;;;;;;;13.86;66.97;100644.84;5051512;28;20209;-72
2021/10/04 01:52:04;;;;;;;1.50;0.60;;;;;;;13.86;66.79;100649.34;5046206;28;20715;-72
2021/10/04 01:54:32;;;;;;;1.37;0.60;;;;;;;13.84;66.42;100660.16;5049120;28;20239;-69
2021/10/04 01:56:59;;;;;;;1.00;0.80;;;;;;;13.83;66.90;100652.25;5047626;28;20198;-72
2021/10/04 01:59:25;;;;;;;1.60;0.60;;;;;;;13.81;66.38;100667.56;5051192;28;20201;-72
2021/10/04 02:01:52;;;;;;;1.33;0.60;;;;;;;13.80;66.50;100668.53;5051064;28;20202;-72
2021/10/04 02:04:18;;;;;;;1.13;0.60;;;;;;;13.78;66.37;100665.16;5041187;28;20583;-72
2021/10/04 02:06:49;;;;;;;2.97;0.83;;;;;;;13.77;66.48;100671.47;5048306;28;20213;-72
2021/10/04 02:09:16;;;;;;;0.77;0.70;;;;;;;13.79;66.39;100673.03;5037147;28;20234;-72
2021/10/04 02:11:44;;;;;;;1.60;0.57;;;;;;;13.78;66.25;100678.53;5047449;28;20726;-71
2021/10/04 02:14:11;;;;;;;2.10;0.70;;;;;;;13.78;66.37;100668.69;5045922;28;20251;-71
2021/10/04 02:16:37;;;;;;;1.80;0.80;;;;;;;13.77;66.57;100669.66;5039372;28;20616;-72
2021/10/04 02:19:04;;;;;;;0.83;0.57;;;;;;;13.77;66.48;100658.94;5050810;28;20213;-72
2021/10/04 02:21:31;;;;;;;2.37;0.77;;;;;;;13.76;66.11;100659.91;5036642;28;20197;-72
2021/10/04 02:23:57;;;;;;;1.67;0.57;;;;;;;13.76;66.51;100662.59;5047392;28;20227;-72
2021/10/04 02:26:24;;;;;;;3.40;0.63;;;;;;;13.76;66.23;100662.59;5040202;28;20217;-72
2021/10/04 02:28:52;;;;;;;3.17;0.70;;;;;;;13.74;66.22;100653.81;5041706;28;20202;-72
2021/10/04 02:31:19;;;;;;;0.67;0.60;;;;;;;13.75;65.88;100658.19;5036163;28;20233;-72
2021/10/04 02:33:45;;;;;;;2.70;0.60;;;;;;;13.74;66.38;100669.03;5044409;28;20226;-71
2021/10/04 02:36:12;;;;;;;1.63;0.57;;;;;;;13.72;66.17;100653.06;5035203;28;20236;-72
2021/10/04 02:38:38;;;;;;;0.90;0.60;;;;;;;13.71;66.27;100648.69;5047510;28;20573;-72
2021/10/04 02:41:05;;;;;;;1.67;0.60;;;;;;;13.68;66.11;100654.28;5043111;28;20421;-72
2021/10/04 02:43:31;;;;;;;1.73;0.57;;;;;;;13.67;66.05;100649.88;5044932;28;20229;-72
2021/10/04 02:45:59;;;;;;;3.40;0.80;;;;;;;13.67;65.90;100655.25;5047641;28;20212;-72
2021/10/04 02:48:26;;;;;;;1.93;0.80;;;;;;;13.64;66.42;100663.50;5049774;28;20212;-72
2021/10/04 02:50:53;;;;;;;1.33;0.60;;;;;;;13.64;66.44;100668.00;5049192;28;20777;-72
2021/10/04 02:53:19;;;;;;;1.00;0.60;;;;;;;13.62;65.96;100657.41;5050559;28;20616;-72
2021/10/04 02:55:46;;;;;;;2.30;0.60;;;;;;;13.63;66.01;100669.81;5051060;28;20198;-72
2021/10/04 02:58:12;;;;;;;0.77;0.50;;;;;;;13.61;66.29;100666.44;5047042;28;20220;-72
2021/10/04 03:00:39;;;;;;;1.73;0.43;;;;;;;13.61;66.30;100679.81;5049442;28;20202;-72
2021/10/04 03:03:08;;;;;;;2.20;0.83;;;;;;;13.60;66.41;100683.47;5043564;28;20222;-71
2021/10/04 03:05:34;;;;;;;0.80;0.53;;;;;;;13.59;66.07;100688.91;5038032;28;20205;-72
2021/10/04 03:08:02;;;;;;;1.20;0.40;;;;;;;13.59;66.00;100679.06;5038855;28;20237;-72
2021/10/04 03:10:30;;;;;;;3.87;0.70;;;;;;;13.60;65.88;100686.13;5033113;28;20202;-73
2021/10/04 03:12:56;;;;;;;1.10;0.50;;;;;;;13.60;65.87;100680.78;5035370;28;20741;-72
2021/10/04 03:15:23;;;;;;;2.63;0.60;;;;;;;13.60;66.28;100677.25;5044193;28;20209;-72
2021/10/04 03:17:49;;;;;;;1.57;0.60;;;;;;;13.59;65.98;100675.53;5031348;28;20217;-72
2021/10/04 03:20:17;;;;;;;3.93;0.80;;;;;;;13.59;65.63;100687.09;5041949;28;20205;-71
2021/10/04 03:22:44;;;;;;;2.03;0.73;;;;;;;13.59;65.43;100678.22;5042036;28;20209;-72
2021/10/04 03:25:10;;;;;;;1.63;0.63;;;;;;;13.58;65.79;100673.84;5031181;28;20224;-72
2021/10/04 03:27:37;;;;;;;0.83;0.57;;;;;;;13.58;65.63;100673.84;5040960;28;20570;-72
2021/10/04 03:30:05;;;;;;;1.07;0.50;;;;;;;13.57;65.67;100661.41;5038476;28;20214;-72
2021/10/04 03:32:31;;;;;;;2.53;0.57;;;;;;;13.56;65.94;100663.25;5046758;28;20802;-72
2021/10/04 03:34:58;;;;;;;0.70;0.67;;;;;;;13.55;65.74;100657.03;5050038;28;20223;-72
2021/10/04 03:37:26;;;;;;;1.77;0.60;;;;;;;13.55;65.53;100659.72;5047742;28;20205;-72
2021/10/04 03:39:52;;;;;;;1.57;0.60;;;;;;;13.54;65.57;100659.81;5044383;28;20207;-72
2021/10/04 03:42:19;;;;;;;1.67;0.60;;;;;;;13.55;65.95;100670.41;5041433;28;20208;-72
2021/10/04 03:44:45;;;;;;;2.63;0.67;;;;;;;13.55;66.10;100686.47;5045042;28;20225;-72
2021/10/04 03:47:12;;;;;;;1.17;0.53;;;;;;;13.55;65.62;100697.19;5038210;28;20212;-72
2021/10/04 03:49:38;;;;;;;1.00;0.60;;;;;;;13.55;65.69;100707.03;5037000;28;20694;-71
2021/10/04 03:52:06;;;;;;;1.77;0.73;;;;;;;13.53;65.78;100712.50;5032290;28;20229;-72
2021/10/04 03:54:34;;;;;;;3.23;0.70;;;;;;;13.55;65.77;100717.72;5076959;22;20236;-76
2021/10/04 03:57:00;;;;;;;1.07;0.40;;;;;;;13.55;65.71;100702.53;5065874;28;20220;-76
2021/10/04 03:59:26;;;;;;;1.43;0.60;;;;;;;13.54;65.41;100699.97;5061555;28;20212;-76
2021/10/04 04:01:53;;;;;;;1.73;0.80;;;;;;;13.54;65.42;100703.50;5058998;28;20207;-76
2021/10/04 04:04:20;;;;;;;1.23;0.53;;;;;;;13.56;64.94;100711.41;5060183;28;20228;-75
2021/10/04 04:06:46;;;;;;;1.00;0.50;;;;;;;13.56;65.20;100714.09;5064407;28;20197;-76
2021/10/04 04:09:13;;;;;;;4.27;0.60;;;;;;;13.57;65.31;100704.25;5079741;28;20492;-77
2021/10/04 04:11:41;;;;;;;1.47;0.60;;;;;;;13.57;65.20;100696.22;5070896;28;20204;-76
2021/10/04 04:14:08;;;;;;;1.47;0.60;;;;;;;13.56;65.29;100708.72;5073522;28;20220;-76
2021/10/04 04:16:35;;;;;;;1.13;0.50;;;;;;;13.56;65.02;100722.13;5075366;28;20196;-76
2021/10/04 04:19:01;;;;;;;3.77;1.00;;;;;;;13.58;64.89;100749.63;5074106;28;20205;-76
2021/10/04 04:21:29;;;;;;;1.07;0.50;;;;;;;13.59;65.15;100750.47;5070618;28;20232;-77
2021/10/04 04:23:55;;;;;;;3.43;0.87;;;;;;;13.58;64.96;100736.22;5081395;28;20228;-76
2021/10/04 04:26:22;;;;;;;1.77;0.40;;;;;;;13.58;65.16;100732.69;5074649;28;20597;-77
2021/10/04 04:28:50;;;;;;;1.80;0.60;;;;;;;13.56;64.58;100746.19;5057685;28;20680;-77
2021/10/04 04:31:17;;;;;;;2.10;0.43;;;;;;;13.56;65.38;100748.88;5062663;28;20197;-77
2021/10/04 04:33:43;;;;;;;1.73;0.80;;;;;;;13.56;65.21;100743.53;5067506;28;20234;-77
2021/10/04 04:36:10;;;;;;;2.20;0.80;;;;;;;13.56;65.23;100754.22;5072415;28;20201;-77
2021/10/04 04:38:36;;;;;;;1.13;0.50;;;;;;;13.55;64.82;100761.41;5080589;28;20212;-76
2021/10/04 04:41:03;;;;;;;1.80;0.70;;;;;;;13.55;65.13;100764.06;5077026;28;20590;-77
2021/10/04 04:43:30;;;;;;;2.23;0.60;;;;;;;13.56;65.27;100780.97;5072529;28;20315;-75
2021/10/04 04:45:58;;;;;;;1.07;0.47;;;;;;;13.54;65.28;100774.88;5063638;28;20201;-76
2021/10/04 04:48:25;;;;;;;2.83;0.60;;;;;;;13.54;64.97;100770.38;5063186;28;20205;-76
2021/10/04 04:50:51;;;;;;;0.90;0.50;;;;;;;13.53;65.22;100775.84;5068360;28;20208;-76
2021/10/04 04:53:18;;;;;;;1.37;0.80;;;;;;;13.52;65.23;100776.81;5067891;28;20691;-77
2021/10/04 04:55:44;;;;;;;1.93;0.70;;;;;;;13.51;65.17;100780.47;5065646;28;20204;-76
2021/10/04 04:58:11;;;;;;;1.90;0.63;;;;;;;13.50;65.54;100784.94;5067596;28;20659;-78
2021/10/04 05:00:37;;;;;;;1.60;0.70;;;;;;;13.48;65.56;100776.19;5068270;28;20206;-76
2021/10/04 05:03:07;;;;;;;1.30;0.60;;;;;;;13.48;65.13;100769.97;5078141;28;20202;-75
2021/10/04 05:05:33;;;;;;;1.30;0.70;;;;;;;13.46;65.21;100772.75;5083025;28;20243;-76
2021/10/04 05:08:00;;;;;;;2.60;0.70;;;;;;;13.46;65.44;100774.56;5076559;28;20209;-76
2021/10/04 05:10:26;;;;;;;2.70;0.60;;;;;;;13.45;65.05;100768.38;5069693;28;20210;-76
2021/10/04 05:12:53;;;;;;;2.93;0.67;;;;;;;13.44;65.08;100766.66;5073172;28;20236;-76
2021/10/04 05:15:19;;;;;;;2.53;0.70;;;;;;;13.43;65.21;100767.66;5060876;28;20589;-76
2021/10/04 05:17:46;;;;;;;2.07;0.60;;;;;;;13.43;64.98;100769.47;5065037;28;20209;-76
2021/10/04 05:20:14;;;;;;;2.77;0.90;;;;;;;13.42;65.17;100757.94;5061023;28;20206;-77
2021/10/04 05:22:41;;;;;;;4.43;0.90;;;;;;;13.43;65.08;100769.47;5072640;28;20207;-76
2021/10/04 05:25:09;;;;;;;2.20;0.60;;;;;;;13.42;65.28;100771.31;5056496;28;20217;-77
2021/10/04 05:27:36;;;;;;;1.00;0.47;;;;;;;13.42;65.19;100767.78;5060870;28;20248;-75
2021/10/04 05:30:04;;;;;;;2.60;0.40;;;;;;;13.42;65.23;100775.78;5062331;28;20201;-77
2021/10/04 05:32:30;;;;;;;1.37;0.60;;;;;;;13.41;64.90;100774.94;5065092;28;20747;-74
2021/10/04 05:34:57;;;;;;;1.37;0.83;;;;;;;13.41;65.19;100785.63;5062788;28;20235;-71
2021/10/04 05:37:25;;;;;;;3.90;0.70;;;;;;;13.43;65.10;100773.00;5063553;28;20310;-72
2021/10/04 05:39:52;;;;;;;2.90;0.73;;;;;;;13.45;64.99;100791.59;5065316;28;20205;-72
2021/10/04 05:42:18;;;;;;;1.80;0.50;;;;;;;13.44;64.90;100787.22;5057571;28;20201;-72
2021/10/04 05:44:45;;;;;;;2.50;0.83;;;;;;;13.45;65.14;100792.44;5073136;28;20225;-72
2021/10/04 05:47:12;;;;;;;3.03;0.60;;;;;;;13.46;64.78;100791.50;5058006;28;20300;-72
2021/10/04 05:49:39;;;;;;;2.73;0.33;;;;;;;13.47;64.96;100790.53;5064173;28;20209;-73
2021/10/04 05:52:06;;;;;;;1.37;0.50;;;;;;;13.48;65.18;100791.38;5051814;28;20214;-70
2021/10/04 05:54:34;;;;;;;1.70;0.80;;;;;;;13.49;65.13;100793.09;5052486;28;20237;-72
2021/10/04 05:57:01;;;;;;;0.87;0.50;;;;;;;13.50;64.81;100789.44;5052516;28;20209;-72
2021/10/04 05:59:27;;;;;;;2.63;0.67;;;;;;;13.51;64.66;100792.00;5051531;28;20216;-73
2021/10/04 06:01:54;;;;;;;4.17;0.67;;;;;;;13.52;64.66;100798.22;5052125;28;20685;-73
2021/10/04 06:04:20;;;;;;;1.80;0.50;;;;;;;13.53;64.79;100806.13;5055288;28;20220;-72
2021/10/04 06:06:47;;;;;;;1.40;0.40;;;;;;;13.55;64.96;100789.97;5072463;28;20582;-73
2021/10/04 06:09:13;;;;;;;1.23;0.50;;;;;;;13.57;64.40;100803.25;5070187;28;20219;-72
2021/10/04 06:11:41;;;;;;;1.33;0.50;;;;;;;13.58;64.53;100795.09;5052457;28;20213;-72
2021/10/04 06:14:08;;;;;;;1.17;0.50;;;;;;;13.58;64.72;100795.09;5063825;28;20235;-74
2021/10/04 06:16:35;;;;;;;1.47;0.60;;;;;;;13.59;64.43;100796.81;5055852;28;20205;-73
2021/10/04 06:19:01;;;;;;;2.30;0.60;;;;;;;13.60;64.76;100803.88;5070210;28;20581;-73
2021/10/04 06:21:28;;;;;;;2.47;0.50;;;;;;;13.60;64.51;100803.88;5053514;28;20213;-72
2021/10/04 06:23:54;;;;;;;2.20;0.50;;;;;;;13.61;64.59;100804.75;5053653;28;20225;-72
2021/10/04 06:26:21;;;;;;;2.27;0.50;;;;;;;13.63;65.03;100805.44;5051649;28;20222;-73
2021/10/04 06:28:49;;;;;;;1.13;0.50;;;;;;;13.63;65.31;100811.66;5061942;28;20218;-72
2021/10/04 06:31:15;;;;;;;3.87;0.80;;;;;;;13.64;65.02;100817.88;5051735;28;20209;-72
2021/10/04 06:33:42;;;;;;;1.07;0.57;;;;;;;13.65;65.33;100841.00;5051469;28;20245;-72
2021/10/04 06:36:08;;;;;;;0.30;0.30;;;;;;;13.64;65.01;100848.16;5051841;28;20220;-72
2021/10/04 06:38:35;;;;;;;3.13;0.67;;;;;;;13.64;65.36;100856.19;5051267;28;20678;-72
2021/10/04 06:41:02;;;;;;;1.07;0.63;;;;;;;13.65;65.48;100846.34;5062303;28;20209;-72
2021/10/04 06:43:28;;;;;;;0.90;0.70;;;;;;;13.65;65.56;100849.88;5065238;28;20217;-72
2021/10/04 06:45:56;;;;;;;2.73;0.73;;;;;;;13.65;65.58;100849.00;5066450;28;20205;-72
2021/10/04 06:48:23;;;;;;;1.37;0.53;;;;;;;13.65;65.97;100871.28;5051474;28;20698;-72
2021/10/04 06:50:49;;;;;;;1.73;1.00;;;;;;;13.67;65.87;100865.81;5050812;28;20694;-72
2021/10/04 06:53:16;;;;;;;2.70;0.60;;;;;;;13.65;66.03;100882.00;5050963;28;20707;-73
2021/10/04 06:55:45;;;;;;;3.13;0.77;;;;;;;13.65;66.21;100900.72;5062289;28;20220;-73
2021/10/04 06:58:13;;;;;;;4.60;1.13;;;;;;;13.67;66.18;100916.69;5051586;28;20286;-72
2021/10/04 07:00:39;;;;;;;13.40;3.20;;;;;;;13.67;66.08;100911.31;5051496;28;20212;-72
2021/10/04 07:03:07;;;;;;;3.40;0.70;;;;;;;13.67;66.03;100914.84;5052637;28;20206;-72
2021/10/04 07:05:34;;;;;;;0.77;0.60;;;;;;;13.68;66.21;100929.94;5061212;28;20213;-73
2021/10/04 07:08:01;;;;;;;0.93;0.47;;;;;;;13.70;66.45;100937.88;5050482;28;20671;-73
2021/10/04 07:10:28;;;;;;;2.00;0.63;;;;;;;13.69;66.55;100950.41;5056972;28;20217;-72
2021/10/04 07:12:54;;;;;;;1.13;0.60;;;;;;;13.69;66.58;100946.88;5057989;28;20715;-73
2021/10/04 07:15:21;;;;;;;3.00;1.03;;;;;;;13.68;66.27;100954.03;5055440;28;20209;-73
2021/10/04 07:17:47;;;;;;;1.90;0.60;;;;;;;13.68;66.67;100939.81;5059992;28;20213;-72
2021/10/04 07:20:15;;;;;;;1.80;0.60;;;;;;;13.68;66.72;100943.34;5050396;28;20206;-72
2021/10/04 07:22:43;;;;;;;1.47;0.43;;;;;;;13.69;66.38;100939.69;5050881;28;20308;-72
2021/10/04 07:25:12;;;;;;;2.43;0.60;;;;;;;13.70;66.56;100948.56;5050459;28;20230;-73
2021/10/04 07:27:39;;;;;;;1.60;0.50;;;;;;;13.70;66.77;100954.78;5059787;28;20216;-74
2021/10/04 07:30:07;;;;;;;1.13;0.50;;;;;;;13.71;66.84;100959.19;5083359;28;20211;-72
2021/10/04 07:32:33;;;;;;;0.97;0.70;;;;;;;13.73;66.61;100962.59;5070041;28;20205;-72
2021/10/04 07:35:00;;;;;;;2.03;0.50;;;;;;;13.75;66.39;100958.00;5067749;28;20224;-72
2021/10/04 07:37:28;;;;;;;2.67;0.73;;;;;;;13.76;66.86;100959.72;5077090;28;20219;-73
2021/10/04 07:39:55;;;;;;;1.00;0.57;;;;;;;13.78;66.40;100948.91;5064018;28;20239;-72
2021/10/04 07:42:21;;;;;;;1.97;0.60;;;;;;;13.79;66.55;100946.09;5054855;28;20662;-73
2021/10/04 07:44:50;;;;;;;1.37;0.40;;;;;;;13.81;66.53;100949.50;5069092;28;20718;-72
2021/10/04 07:47:17;;;;;;;1.13;0.60;;;;;;;13.83;66.76;100950.25;5071263;28;20208;-72
2021/10/04 07:49:43;;;;;;;2.00;0.40;;;;;;;13.86;66.76;100954.53;5063805;28;20209;-73
2021/10/04 07:52:10;;;;;;;1.43;0.50;;;;;;;13.89;66.38;100957.00;5060246;28;20208;-73
2021/10/04 07:54:38;;;;;;;2.60;0.60;;;;;;;13.90;66.22;100946.19;5070517;28;20236;-72
2021/10/04 07:57:04;;;;;;;3.43;0.53;;;;;;;13.93;66.16;100938.91;5070231;28;20204;-72
2021/10/04 07:59:31;;;;;;;2.33;0.40;;;;;;;13.96;66.68;100933.31;5069412;28;20207;-73
2021/10/04 08:01:57;;;;;;;2.40;0.40;;;;;;;13.98;66.47;100929.53;5070669;28;20213;-73
2021/10/04 08:04:24;;;;;;;1.57;0.50;;;;;;;14.03;66.80;100926.53;5063980;28;20702;-72
2021/10/04 08:06:50;;;;;;;1.77;0.60;;;;;;;14.06;66.85;100932.53;5051815;28;20205;-72
2021/10/04 08:09:17;;;;;;;2.67;0.67;;;;;;;14.09;66.46;100937.66;5063210;28;20614;-73
2021/10/04 08:11:45;;;;;;;2.27;0.50;;;;;;;14.12;66.32;100950.84;5049762;28;20209;-72
2021/10/04 08:14:11;;;;;;;1.30;0.47;;;;;;;14.15;66.39;100933.69;5063883;28;20230;-73
2021/10/04 08:16:38;;;;;;;1.60;0.60;;;;;;;14.18;66.64;100933.44;5061860;28;20205;-73
2021/10/04 08:19:04;;;;;;;1.40;0.53;;;;;;;14.22;66.70;100940.28;5069081;28;20201;-72
2021/10/04 08:21:31;;;;;;;2.00;0.97;;;;;;;14.25;66.69;100956.13;5071495;28;20211;-72
2021/10/04 08:23:59;;;;;;;1.10;0.60;;;;;;;14.28;66.23;100941.66;5070588;28;20793;-73
2021/10/04 08:26:25;;;;;;;1.63;0.50;;;;;;;14.31;66.20;100938.75;5059563;28;20251;-72
2021/10/04 08:28:53;;;;;;;3.70;0.80;;;;;;;14.35;66.42;100956.28;5073340;28;20204;-72
2021/10/04 08:31:20;;;;;;;1.33;0.40;;;;;;;14.37;66.21;100957.91;5054346;28;20214;-72
2021/10/04 08:33:47;;;;;;;2.67;0.70;;;;;;;14.40;65.99;100960.38;5054003;28;20248;-73
2021/10/04 08:36:14;;;;;;;1.50;0.73;;;;;;;14.44;65.95;100969.06;5058588;28;20205;-73
2021/10/04 08:38:40;;;;;;;3.93;0.77;;;;;;;14.47;66.16;100968.84;5062845;28;20210;-73
2021/10/04 08:41:07;;;;;;;0.70;0.50;;;;;;;14.49;66.20;100972.25;5072212;28;20211;-72
2021/10/04 08:43:42;;;;;;;1.50;0.63;;;;;;;14.53;66.08;100984.44;5088621;28;20600;-73
2021/10/04 08:46:10;;;;;;;2.00;0.40;;;;;;;14.56;65.61;100969.00;5068162;28;20696;-72
2021/10/04 08:48:37;;;;;;;2.13;0.60;;;;;;;14.59;65.49;100962.56;5060519;28;20221;-72
2021/10/04 08:51:05;;;;;;;2.83;0.60;;;;;;;14.62;65.08;100964.16;5066398;28;20200;-72
2021/10/04 08:53:31;;;;;;;1.53;0.57;;;;;;;14.65;65.26;100977.31;5078796;28;20615;-71
2021/10/04 08:55:58;;;;;;;1.43;0.50;;;;;;;14.70;64.95;100986.72;5063976;28;20224;-73
2021/10/04 08:58:24;;;;;;;2.20;0.80;;;;;;;14.75;65.14;100997.09;5066730;28;20201;-72
2021/10/04 09:00:51;;;;;;;2.00;0.60;;;;;;;14.80;65.02;101005.66;5067557;28;20589;-72
2021/10/04 09:03:19;;;;;;;1.40;0.50;;;;;;;14.84;65.09;100996.44;5053568;28;20230;-73
2021/10/04 09:05:47;;;;;;;2.57;0.40;;;;;;;14.88;64.61;100984.47;5069866;28;20201;-73
2021/10/04 09:08:15;;;;;;;0.53;0.47;;;;;;;14.93;64.68;100982.31;5073539;28;20235;-73
2021/10/04 09:10:44;;;;;;;1.40;0.60;;;;;;;14.99;64.65;100987.22;5070041;28;20286;-73
2021/10/04 09:13:12;;;;;;;1.07;0.50;;;;;;;15.03;64.36;100977.97;5072406;28;20220;-72
2021/10/04 09:15:41;;;;;;;2.00;0.60;;;;;;;15.09;64.39;100990.03;5069632;28;20216;-73
2021/10/04 09:18:10;;;;;;;1.03;0.50;;;;;;;15.15;64.15;100982.38;5053272;28;20676;-73
2021/10/04 09:20:54;;;;;;;2.93;0.80;;;;;;;15.21;64.25;100981.06;5068149;28;20201;-72
2021/10/04 09:23:34;;;;;;;1.87;0.63;;;;;;;15.26;63.79;100984.22;5066340;28;20232;-73
2021/10/04 09:26:02;;;;;;;2.70;0.60;;;;;;;15.31;63.90;100981.19;5066794;28;20213;-72
2021/10/04 09:28:31;;;;;;;0.90;0.43;;;;;;;15.35;63.64;100979.97;5063167;28;20212;-73
2021/10/04 09:31:21;;;;;;;1.60;0.50;;;;;;;15.38;63.07;100971.69;5063944;28;20675;-73
2021/10/04 09:34:06;;;;;;;2.70;0.40;;;;;;;15.41;62.80;100977.66;5058818;28;20729;-72
2021/10/04 09:36:36;;;;;;;2.43;0.50;;;;;;;15.46;62.52;100969.25;5072006;28;20231;-74
2021/10/04 09:39:15;;;;;;;1.90;0.70;;;;;;;15.47;62.09;100962.91;5072321;28;20667;-72
2021/10/04 09:42:06;;;;;;;3.30;0.67;;;;;;;15.52;62.03;100968.78;5052242;28;20244;-72
2021/10/04 09:44:52;;;;;;;2.30;0.60;;;;;;;15.57;62.07;100966.63;5055584;28;20707;-73
2021/10/04 09:47:20;;;;;;;1.23;0.53;;;;;;;15.59;61.39;100964.63;5060226;28;20289;-72
2021/10/04 09:49:52;;;;;;;2.60;0.50;;;;;;;15.61;61.40;100965.38;5056433;28;20240;-72
2021/10/04 09:52:32;;;;;;;1.83;0.40;;;;;;;15.67;61.19;100958.69;5072931;28;20219;-73
2021/10/04 09:54:58;;;;;;;3.13;0.50;;;;;;;15.69;61.12;100952.22;5063418;22;20234;-83
2021/10/04 09:57:25;;;;;;;1.97;0.50;;;;;;;15.72;61.49;100953.81;5046225;28;20290;-83
2021/10/04 09:59:51;;;;;;;2.57;0.90;;;;;;;15.75;61.52;100949.03;5050792;28;20681;-83
2021/10/04 10:02:20;;;;;;;3.30;0.83;;;;;;;15.76;61.38;100945.38;5054239;28;20212;-83
2021/10/04 10:04:50;;;;;;;0.60;0.33;;;;;;;15.82;61.32;100949.38;5054485;28;20301;-83
2021/10/04 10:07:18;;;;;;;1.43;0.57;;;;;;;15.81;60.91;100945.84;5053498;28;20583;-83
2021/10/04 10:09:46;;;;;;;1.00;0.50;;;;;;;15.83;60.84;100948.41;5054321;28;20592;-83
2021/10/04 10:12:13;;;;;;;1.57;0.50;;;;;;;15.83;61.00;100956.47;5054103;28;20257;-83
2021/10/04 10:14:41;;;;;;;1.20;0.50;;;;;;;15.86;60.94;100961.59;5052391;28;20313;-83
2021/10/04 10:17:15;;;;;;;1.87;0.50;;;;;;;15.88;61.19;100968.56;5054026;28;20590;-83
2021/10/04 10:19:43;;;;;;;1.00;0.50;;;;;;;15.90;60.87;100974.66;5055653;28;20227;-83
2021/10/04 10:22:15;;;;;;;3.83;0.60;;;;;;;15.93;60.41;100978.94;5052547;28;20293;-83
2021/10/04 10:24:42;;;;;;;0.70;0.50;;;;;;;15.93;60.71;100985.16;5051884;28;20578;-84
2021/10/04 10:27:11;;;;;;;1.33;0.40;;;;;;;15.97;60.67;100991.97;5041905;28;20223;-84
2021/10/04 10:29:38;;;;;;;0.97;0.47;;;;;;;16.03;60.92;100979.03;5051345;28;20231;-84
2021/10/04 10:32:21;;;;;;;1.70;0.50;;;;;;;16.09;60.74;100979.41;5042922;28;20235;-83
2021/10/04 10:34:57;;;;;;;0.83;0.50;;;;;;;16.14;60.84;100977.19;5054196;28;20882;-84
2021/10/04 10:37:29;;;;;;;2.23;0.57;;;;;;;16.20;60.73;100984.75;5056905;28;20250;-84
2021/10/04 10:39:59;;;;;;;1.23;0.40;;;;;;;16.26;60.84;100986.94;5053799;28;20222;-83
2021/10/04 10:42:31;;;;;;;2.27;0.43;;;;;;;16.31;60.93;100991.91;5039312;28;20210;-83
2021/10/04 10:45:12;;;;;;;0.60;0.30;;;;;;;16.37;60.60;100998.63;5042285;28;20677;-83
2021/10/04 10:47:53;;;;;;;1.60;0.50;;;;;;;16.41;60.64;100994.72;5050635;28;20680;-83
2021/10/04 10:50:28;;;;;;;2.17;0.43;;;;;;;16.42;60.42;100981.16;5053466;28;20230;-83
2021/10/04 10:53:07;;;;;;;0.67;0.40;;;;;;;16.44;60.39;100975.66;5053850;28;20218;-83
2021/10/04 10:55:35;;;;;;;1.43;0.70;;;;;;;16.46;60.28;100971.00;5053177;28;20226;-84
2021/10/04 10:58:06;;;;;;;2.20;0.47;;;;;;;16.48;60.24;100964.50;5056434;28;20207;-84
2021/10/04 11:00:35;;;;;;;1.37;0.40;;;;;;;16.51;59.97;100966.94;5052397;28;20231;-84
2021/10/04 11:03:05;;;;;;;0.60;0.30;;;;;;;16.56;60.03;100975.50;5047570;28;20210;-84
2021/10/04 11:05:58;;;;;;;2.77;0.50;;;;;;;16.57;59.90;100977.19;5052568;28;20213;-83
2021/10/04 11:08:55;;;;;;;1.30;0.40;;;;;;;16.60;59.62;100985.00;5088043;27;20555;-71
2021/10/04 11:11:23;;;;;;;3.53;0.60;;;;;;;16.63;58.90;100984.81;5088031;28;20214;-73
2021/10/04 11:13:59;;;;;;;0.80;0.40;;;;;;;16.60;59.17;100982.31;5082678;28;20232;-71
2021/10/04 11:16:31;;;;;;;3.03;0.60;;;;;;;16.66;59.24;100978.28;5056635;28;20210;-73
2021/10/04 11:18:58;;;;;;;1.00;0.40;;;;;;;16.67;59.20;100972.78;5053301;28;20223;-73
2021/10/04 11:21:26;;;;;;;1.47;0.47;;;;;;;16.72;59.03;100958.09;5076952;22;20213;-84
2021/10/04 11:23:59;;;;;;;2.27;0.50;;;;;;;16.76;58.82;100967.63;5057855;28;20207;-85
2021/10/04 11:26:26;;;;;;;0.80;0.47;;;;;;;16.80;59.19;100966.38;5052862;28;20667;-84
2021/10/04 11:28:54;;;;;;;1.63;0.50;;;;;;;16.85;59.32;100969.53;5063649;28;20210;-84